createdAt,value
2018-12-22T00:00:02.883Z,27.49
2018-12-22T00:01:02.847Z,27.52
2018-12-22T00:02:02.803Z,27.36
2018-12-22T00:03:02.759Z,27.30
2018-12-22T00:04:02.719Z,27.21
2018-12-22T00:05:02.666Z,27.20
2018-12-22T00:06:02.621Z,27.15
2018-12-22T00:07:02.600Z,27.20
2018-12-22T00:08:02.542Z,27.14
2018-12-22T00:09:02.512Z,27.18
2018-12-22T00:10:02.472Z,27.02
2018-12-22T00:11:02.411Z,26.80
2018-12-22T00:12:02.370Z,26.40
2018-12-22T00:13:02.328Z,26.09
2018-12-22T00:14:02.279Z,25.87
2018-12-22T00:15:02.242Z,25.80
2018-12-22T00:16:02.196Z,25.72
2018-12-22T00:17:02.163Z,25.54
2018-12-22T00:18:02.097Z,25.50
2018-12-22T00:19:02.061Z,25.44
2018-12-22T00:20:02.008Z,25.44
2018-12-22T00:21:01.972Z,25.44
2018-12-22T00:22:01.941Z,25.44
2018-12-22T00:23:01.876Z,25.43
2018-12-22T00:24:01.840Z,25.46
2018-12-22T00:25:01.790Z,25.47
2018-12-22T00:26:01.756Z,25.41
2018-12-22T00:27:01.700Z,25.41
2018-12-22T00:28:01.663Z,25.44
2018-12-22T00:29:01.723Z,25.55
2018-12-22T00:30:01.589Z,25.53
2018-12-22T00:31:01.536Z,25.50
2018-12-22T00:32:01.486Z,25.51
2018-12-22T00:33:01.442Z,25.50
2018-12-22T00:34:01.398Z,25.51
2018-12-22T00:35:01.348Z,25.46
2018-12-22T00:36:01.314Z,25.53
2018-12-22T00:37:01.270Z,25.51
2018-12-22T00:38:01.226Z,25.38
2018-12-22T00:39:01.177Z,25.32
2018-12-22T00:40:01.138Z,25.32
2018-12-22T00:41:01.079Z,25.29
2018-12-22T00:42:01.036Z,25.18
2018-12-22T00:43:00.998Z,25.21
2018-12-22T00:44:00.969Z,25.13
2018-12-22T00:45:00.903Z,25.11
2018-12-22T00:46:00.865Z,25.11
2018-12-22T00:47:00.836Z,25.06
2018-12-22T00:48:00.782Z,25.01
2018-12-22T00:49:00.736Z,25.06
2018-12-22T00:50:00.702Z,25.01
2018-12-22T00:51:00.636Z,24.89
2018-12-22T00:52:00.599Z,24.96
2018-12-22T00:53:00.559Z,24.95
2018-12-22T00:54:00.515Z,24.91
2018-12-22T00:55:00.479Z,24.96
2018-12-22T00:56:00.422Z,24.92
2018-12-22T00:57:00.369Z,24.89
2018-12-22T00:58:00.329Z,24.78
2018-12-22T00:59:00.301Z,24.80
2018-12-22T01:00:00.244Z,24.77
2018-12-22T01:01:00.214Z,24.78
2018-12-22T01:02:00.154Z,24.73
2018-12-22T01:03:00.114Z,24.85
2018-12-22T01:04:00.082Z,24.86
2018-12-22T01:05:00.034Z,24.77
2018-12-22T01:05:59.989Z,24.88
2018-12-22T01:06:59.945Z,24.86
2018-12-22T01:07:59.901Z,24.92
2018-12-22T01:08:59.842Z,25.06
2018-12-22T01:09:59.814Z,24.88
2018-12-22T01:10:59.758Z,24.86
2018-12-22T01:11:59.724Z,24.81
2018-12-22T01:12:59.678Z,24.73
2018-12-22T01:13:59.612Z,24.68
2018-12-22T01:14:59.567Z,24.58
2018-12-22T01:15:59.537Z,24.61
2018-12-22T01:16:59.486Z,24.58
2018-12-22T01:17:59.433Z,24.53
2018-12-22T01:18:59.401Z,24.45
2018-12-22T01:19:59.344Z,24.33
2018-12-22T01:20:59.314Z,24.24
2018-12-22T01:21:59.266Z,24.14
2018-12-22T01:22:59.217Z,24.02
2018-12-22T01:23:59.164Z,24.06
2018-12-22T01:24:59.132Z,23.96
2018-12-22T01:25:59.083Z,23.91
2018-12-22T01:26:59.029Z,23.99
2018-12-22T01:27:58.984Z,23.84
2018-12-22T01:28:58.953Z,23.96
2018-12-22T01:29:58.912Z,24.10
2018-12-22T01:30:58.864Z,24.02
2018-12-22T01:31:58.818Z,24.11
2018-12-22T01:32:58.770Z,24.13
2018-12-22T01:33:58.715Z,24.20
2018-12-22T01:34:58.679Z,24.32
2018-12-22T01:35:58.639Z,24.47
2018-12-22T01:36:58.602Z,24.53
2018-12-22T01:37:58.559Z,24.47
2018-12-22T01:38:58.505Z,24.47
2018-12-22T01:39:58.459Z,24.40
2018-12-22T01:40:58.410Z,24.40
2018-12-22T01:41:58.356Z,24.45
2018-12-22T01:42:58.347Z,24.58
2018-12-22T01:43:58.280Z,24.60
2018-12-22T01:44:58.235Z,24.66
2018-12-22T01:45:58.199Z,24.69
2018-12-22T01:46:58.140Z,24.69
2018-12-22T01:47:58.087Z,24.74
2018-12-22T01:48:58.043Z,24.73
2018-12-22T01:49:58.019Z,24.77
2018-12-22T01:50:57.974Z,24.78
2018-12-22T01:51:57.918Z,24.80
2018-12-22T01:52:57.884Z,24.78
2018-12-22T01:53:57.840Z,24.58
2018-12-22T01:54:57.781Z,24.57
2018-12-22T01:55:57.750Z,24.53
2018-12-22T01:56:57.684Z,24.60
2018-12-22T01:57:57.644Z,24.63
2018-12-22T01:58:57.594Z,24.69
2018-12-22T01:59:57.550Z,24.60
2018-12-22T02:00:57.528Z,24.54
2018-12-22T02:01:57.473Z,24.53
2018-12-22T02:02:57.422Z,24.42
2018-12-22T02:03:57.383Z,24.30
2018-12-22T02:04:57.338Z,24.21
2018-12-22T02:05:57.290Z,24.29
2018-12-22T02:06:57.243Z,24.18
2018-12-22T02:07:57.192Z,24.13
2018-12-22T02:08:57.147Z,24.20
2018-12-22T02:09:57.101Z,24.24
2018-12-22T02:10:57.056Z,24.24
2018-12-22T02:11:57.024Z,24.36
2018-12-22T02:12:56.966Z,24.24
2018-12-22T02:13:56.943Z,24.36
2018-12-22T02:14:56.877Z,24.35
2018-12-22T02:15:56.845Z,24.43
2018-12-22T02:16:56.787Z,24.50
2018-12-22T02:17:56.749Z,24.57
2018-12-22T02:18:56.710Z,24.45
2018-12-22T02:19:56.673Z,24.57
2018-12-22T02:20:56.607Z,24.43
2018-12-22T02:21:56.575Z,24.53
2018-12-22T02:22:56.539Z,24.51
2018-12-22T02:23:56.487Z,24.53
2018-12-22T02:24:56.436Z,24.57
2018-12-22T02:25:56.383Z,24.51
2018-12-22T02:26:56.351Z,24.54
2018-12-22T02:27:56.293Z,24.48
2018-12-22T02:28:56.948Z,24.45
2018-12-22T02:29:56.227Z,24.40
2018-12-22T02:30:56.167Z,24.47
2018-12-22T02:31:56.125Z,24.50
2018-12-22T02:32:56.090Z,24.51
2018-12-22T02:33:56.024Z,24.65
2018-12-22T02:34:55.982Z,24.63
2018-12-22T02:35:55.955Z,24.73
2018-12-22T02:36:55.914Z,24.73
2018-12-22T02:37:55.844Z,24.73
2018-12-22T02:38:55.812Z,24.65
2018-12-22T02:39:55.767Z,24.57
2018-12-22T02:40:55.721Z,24.61
2018-12-22T02:41:55.677Z,24.61
2018-12-22T02:42:55.629Z,24.57
2018-12-22T02:43:55.589Z,24.45
2018-12-22T02:44:55.546Z,24.35
2018-12-22T02:45:55.493Z,24.23
2018-12-22T02:46:55.453Z,24.08
2018-12-22T02:47:55.405Z,24.01
2018-12-22T02:48:55.377Z,24.02
2018-12-22T02:49:55.315Z,24.08
2018-12-22T02:50:55.261Z,24.10
2018-12-22T02:51:55.242Z,24.10
2018-12-22T02:52:55.184Z,24.10
2018-12-22T02:53:55.147Z,24.14
2018-12-22T02:54:55.088Z,24.13
2018-12-22T02:55:55.051Z,24.14
2018-12-22T02:56:55.013Z,24.13
2018-12-22T02:57:54.969Z,24.18
2018-12-22T02:58:54.903Z,24.17
2018-12-22T02:59:54.863Z,24.26
2018-12-22T03:00:54.834Z,24.24
2018-12-22T03:01:54.769Z,24.18
2018-12-22T03:02:54.729Z,24.13
2018-12-22T03:03:54.699Z,24.03
2018-12-22T03:04:54.645Z,24.03
2018-12-22T03:05:54.594Z,23.96
2018-12-22T03:06:54.542Z,23.96
2018-12-22T03:07:54.497Z,23.96
2018-12-22T03:08:54.466Z,24.16
2018-12-22T03:09:54.428Z,24.17
2018-12-22T03:10:54.369Z,24.28
2018-12-22T03:11:54.330Z,24.33
2018-12-22T03:12:54.280Z,24.36
2018-12-22T03:13:54.236Z,24.39
2018-12-22T03:14:54.204Z,24.43
2018-12-22T03:15:54.158Z,24.47
2018-12-22T03:16:54.105Z,24.45
2018-12-22T03:17:54.060Z,24.51
2018-12-22T03:18:54.016Z,24.53
2018-12-22T03:19:53.957Z,24.47
2018-12-22T03:20:53.926Z,24.55
2018-12-22T03:21:53.888Z,24.54
2018-12-22T03:22:53.843Z,24.51
2018-12-22T03:23:53.778Z,24.54
2018-12-22T03:24:53.740Z,24.53
2018-12-22T03:25:53.700Z,24.43
2018-12-22T03:26:53.642Z,24.47
2018-12-22T03:27:53.611Z,24.36
2018-12-22T03:28:53.554Z,24.39
2018-12-22T03:29:53.529Z,24.45
2018-12-22T03:30:53.479Z,24.51
2018-12-22T03:31:53.434Z,24.55
2018-12-22T03:32:53.383Z,24.63
2018-12-22T03:33:53.357Z,24.48
2018-12-22T03:34:53.291Z,24.54
2018-12-22T03:35:53.259Z,24.60
2018-12-22T03:36:53.215Z,24.51
2018-12-22T03:37:53.171Z,24.53
2018-12-22T03:38:53.124Z,24.55
2018-12-22T03:39:53.089Z,24.53
2018-12-22T03:40:53.036Z,24.57
2018-12-22T03:41:52.976Z,24.50
2018-12-22T03:42:52.924Z,24.47
2018-12-22T03:43:52.891Z,24.47
2018-12-22T03:44:52.834Z,24.48
2018-12-22T03:45:52.802Z,24.50
2018-12-22T03:46:52.747Z,24.57
2018-12-22T03:47:52.707Z,24.63
2018-12-22T03:48:52.667Z,24.55
2018-12-22T03:49:52.609Z,24.54
2018-12-22T03:50:52.572Z,24.68
2018-12-22T03:51:52.532Z,24.65
2018-12-22T03:52:52.475Z,24.57
2018-12-22T03:53:52.443Z,24.53
2018-12-22T03:54:52.400Z,24.43
2018-12-22T03:55:52.363Z,24.54
2018-12-22T03:56:52.306Z,24.53
2018-12-22T03:57:52.249Z,24.57
2018-12-22T03:58:52.226Z,24.61
2018-12-22T03:59:52.181Z,24.61
2018-12-22T04:00:52.123Z,24.47
2018-12-22T04:01:52.088Z,24.43
2018-12-22T04:02:52.049Z,24.38
2018-12-22T04:03:51.988Z,24.36
2018-12-22T04:04:51.943Z,24.26
2018-12-22T04:05:51.891Z,24.23
2018-12-22T04:06:51.858Z,24.29
2018-12-22T04:07:51.817Z,24.28
2018-12-22T04:08:51.763Z,24.35
2018-12-22T04:09:51.732Z,24.39
2018-12-22T04:10:51.674Z,24.32
2018-12-22T04:11:51.633Z,24.30
2018-12-22T04:12:51.595Z,24.35
2018-12-22T04:13:51.545Z,24.33
2018-12-22T04:14:51.573Z,24.30
2018-12-22T04:15:51.441Z,24.33
2018-12-22T04:16:51.409Z,24.33
2018-12-22T04:17:51.354Z,24.32
2018-12-22T04:18:51.314Z,24.40
2018-12-22T04:19:51.283Z,24.45
2018-12-22T04:20:51.229Z,24.40
2018-12-22T04:21:51.170Z,24.38
2018-12-22T04:22:51.147Z,24.43
2018-12-22T04:23:51.081Z,24.42
2018-12-22T04:24:51.058Z,24.50
2018-12-22T04:25:50.998Z,24.55
2018-12-22T04:26:50.945Z,24.51
2018-12-22T04:27:50.957Z,24.54
2018-12-22T04:28:50.856Z,24.63
2018-12-22T04:29:50.811Z,24.53
2018-12-22T04:30:50.787Z,24.47
2018-12-22T04:31:50.897Z,24.38
2018-12-22T04:32:50.689Z,24.29
2018-12-22T04:33:50.638Z,24.24
2018-12-22T04:34:50.587Z,24.24
2018-12-22T04:35:50.541Z,24.33
2018-12-22T04:36:50.506Z,24.30
2018-12-22T04:37:50.473Z,24.32
2018-12-22T04:38:50.414Z,24.30
2018-12-22T04:39:50.370Z,24.33
2018-12-22T04:40:50.331Z,24.33
2018-12-22T04:41:50.272Z,24.18
2018-12-22T04:42:50.267Z,24.08
2018-12-22T04:43:50.190Z,24.14
2018-12-22T04:44:50.144Z,24.11
2018-12-22T04:45:50.233Z,24.10
2018-12-22T04:46:50.053Z,24.13
2018-12-22T04:47:50.014Z,24.13
2018-12-22T04:48:49.970Z,24.03
2018-12-22T04:49:49.918Z,24.17
2018-12-22T04:50:49.866Z,24.18
2018-12-22T04:51:49.834Z,24.17
2018-12-22T04:52:49.775Z,24.30
2018-12-22T04:53:49.753Z,24.32
2018-12-22T04:54:49.702Z,24.32
2018-12-22T04:55:49.662Z,24.24
2018-12-22T04:56:49.599Z,24.18
2018-12-22T04:57:49.560Z,24.18
2018-12-22T04:58:49.513Z,24.23
2018-12-22T04:59:49.460Z,24.13
2018-12-22T05:00:49.423Z,24.05
2018-12-22T05:01:49.383Z,24.05
2018-12-22T05:02:49.325Z,24.08
2018-12-22T05:03:49.293Z,23.92
2018-12-22T05:04:49.245Z,23.95
2018-12-22T05:05:49.242Z,23.92
2018-12-22T05:06:49.158Z,24.05
2018-12-22T05:07:49.113Z,24.03
2018-12-22T05:08:49.055Z,24.10
2018-12-22T05:09:49.023Z,24.18
2018-12-22T05:10:48.971Z,24.11
2018-12-22T05:11:48.930Z,24.14
2018-12-22T05:12:48.882Z,24.10
2018-12-22T05:13:48.853Z,24.08
2018-12-22T05:14:48.806Z,24.10
2018-12-22T05:15:48.748Z,24.14
2018-12-22T05:16:48.705Z,24.21
2018-12-22T05:17:48.671Z,24.18
2018-12-22T05:18:48.617Z,24.33
2018-12-22T05:19:48.563Z,24.36
2018-12-22T05:20:48.536Z,24.33
2018-12-22T05:21:48.477Z,24.30
2018-12-22T05:22:48.426Z,24.32
2018-12-22T05:23:48.379Z,24.36
2018-12-22T05:24:48.342Z,24.36
2018-12-22T05:25:48.310Z,24.35
2018-12-22T05:26:48.248Z,24.30
2018-12-22T05:27:48.199Z,24.35
2018-12-22T05:28:48.196Z,24.42
2018-12-22T05:29:51.965Z,24.40
2018-12-22T05:30:48.064Z,24.43
2018-12-22T05:31:48.043Z,24.40
2018-12-22T05:32:47.982Z,24.42
2018-12-22T05:33:47.929Z,24.45
2018-12-22T05:34:47.905Z,24.43
2018-12-22T05:35:47.846Z,24.40
2018-12-22T05:36:47.815Z,24.50
2018-12-22T05:37:47.770Z,24.42
2018-12-22T05:38:47.704Z,24.36
2018-12-22T05:39:47.667Z,24.39
2018-12-22T05:40:47.627Z,24.33
2018-12-22T05:41:47.582Z,24.20
2018-12-22T05:42:47.538Z,24.23
2018-12-22T05:43:47.479Z,24.20
2018-12-22T05:44:47.444Z,24.28
2018-12-22T05:45:47.390Z,24.28
2018-12-22T05:46:47.355Z,24.21
2018-12-22T05:47:47.312Z,24.33
2018-12-22T05:48:47.267Z,24.36
2018-12-22T05:49:47.229Z,24.33
2018-12-22T05:50:47.172Z,24.33
2018-12-22T05:51:47.119Z,24.29
2018-12-22T05:52:47.075Z,24.38
2018-12-22T05:53:47.043Z,24.30
2018-12-22T05:54:46.996Z,24.30
2018-12-22T05:55:46.939Z,24.29
2018-12-22T05:56:46.909Z,24.24
2018-12-22T05:57:46.849Z,24.21
2018-12-22T05:58:46.880Z,24.14
2018-12-22T05:59:46.771Z,24.20
2018-12-22T06:00:46.721Z,24.17
2018-12-22T06:01:46.669Z,24.17
2018-12-22T06:02:46.633Z,24.21
2018-12-22T06:03:46.587Z,24.23
2018-12-22T06:04:46.536Z,24.33
2018-12-22T06:05:46.511Z,24.36
2018-12-22T06:06:46.456Z,24.29
2018-12-22T06:07:46.406Z,24.32
2018-12-22T06:08:46.354Z,24.38
2018-12-22T06:09:46.316Z,24.32
2018-12-22T06:10:46.286Z,24.33
2018-12-22T06:11:46.219Z,24.28
2018-12-22T06:12:46.195Z,24.26
2018-12-22T06:13:46.137Z,24.20
2018-12-22T06:14:46.091Z,24.17
2018-12-22T06:15:46.038Z,24.17
2018-12-22T06:16:46.003Z,24.13
2018-12-22T06:17:45.957Z,24.17
2018-12-22T06:18:45.925Z,24.08
2018-12-22T06:19:45.883Z,24.06
2018-12-22T06:20:45.826Z,24.16
2018-12-22T06:21:45.771Z,24.18
2018-12-22T06:22:45.745Z,24.06
2018-12-22T06:23:45.691Z,24.21
2018-12-22T06:24:45.646Z,24.18
2018-12-22T06:25:45.606Z,24.10
2018-12-22T06:26:45.586Z,24.20
2018-12-22T06:27:45.521Z,24.11
2018-12-22T06:28:45.466Z,24.10
2018-12-22T06:29:45.408Z,24.02
2018-12-22T06:30:45.365Z,23.93
2018-12-22T06:31:45.326Z,23.92
2018-12-22T06:32:45.291Z,23.93
2018-12-22T06:33:45.241Z,23.88
2018-12-22T06:34:45.204Z,23.92
2018-12-22T06:35:45.138Z,23.95
2018-12-22T06:36:45.114Z,23.96
2018-12-22T06:37:45.060Z,24.02
2018-12-22T06:38:45.094Z,24.06
2018-12-22T06:39:44.970Z,24.08
2018-12-22T06:40:44.925Z,24.10
2018-12-22T06:41:44.889Z,24.14
2018-12-22T06:42:44.822Z,24.10
2018-12-22T06:43:44.790Z,24.13
2018-12-22T06:44:44.753Z,24.02
2018-12-22T06:45:44.694Z,24.03
2018-12-22T06:46:44.641Z,23.96
2018-12-22T06:47:44.610Z,23.95
2018-12-22T06:48:44.564Z,23.91
2018-12-22T06:49:44.529Z,23.92
2018-12-22T06:50:44.469Z,23.86
2018-12-22T06:51:44.437Z,23.84
2018-12-22T06:52:44.371Z,23.87
2018-12-22T06:53:44.347Z,23.80
2018-12-22T06:54:44.280Z,23.78
2018-12-22T06:55:44.256Z,23.71
2018-12-22T06:56:44.204Z,23.63
2018-12-22T06:57:44.167Z,23.61
2018-12-22T06:58:44.100Z,23.61
2018-12-22T06:59:44.062Z,23.58
2018-12-22T07:00:44.026Z,23.62
2018-12-22T07:01:43.986Z,23.65
2018-12-22T07:02:43.932Z,23.65
2018-12-22T07:03:43.881Z,23.68
2018-12-22T07:04:43.836Z,23.71
2018-12-22T07:05:43.805Z,23.76
2018-12-22T07:06:43.738Z,23.84
2018-12-22T07:07:43.713Z,23.88
2018-12-22T07:08:43.655Z,23.84
2018-12-22T07:09:43.610Z,23.98
2018-12-22T07:10:43.570Z,23.98
2018-12-22T07:11:43.512Z,24.05
2018-12-22T07:12:43.475Z,24.06
2018-12-22T07:13:43.443Z,24.18
2018-12-22T07:14:43.398Z,24.11
2018-12-22T07:15:43.344Z,24.01
2018-12-22T07:16:43.299Z,24.01
2018-12-22T07:17:43.252Z,23.93
2018-12-22T07:18:43.217Z,23.84
2018-12-22T07:19:43.153Z,23.87
2018-12-22T07:20:43.105Z,23.83
2018-12-22T07:21:43.068Z,23.80
2018-12-22T07:22:43.015Z,23.92
2018-12-22T07:23:42.983Z,23.91
2018-12-22T07:24:42.937Z,23.95
2018-12-22T07:25:42.892Z,23.93
2018-12-22T07:26:42.856Z,23.93
2018-12-22T07:27:42.811Z,23.98
2018-12-22T07:28:42.751Z,23.98
2018-12-22T07:29:42.720Z,23.98
2018-12-22T07:30:42.677Z,24.02
2018-12-22T07:31:42.609Z,23.96
2018-12-22T07:32:42.576Z,24.01
2018-12-22T07:33:42.619Z,24.08
2018-12-22T07:34:42.494Z,24.05
2018-12-22T07:35:42.453Z,24.02
2018-12-22T07:36:42.410Z,24.06
2018-12-22T07:37:42.359Z,24.01
2018-12-22T07:38:42.294Z,23.95
2018-12-22T07:39:42.270Z,23.88
2018-12-22T07:40:42.223Z,23.84
2018-12-22T07:41:42.171Z,23.86
2018-12-22T07:42:42.112Z,23.86
2018-12-22T07:43:42.069Z,23.84
2018-12-22T07:44:42.029Z,23.78
2018-12-22T07:45:41.998Z,23.87
2018-12-22T07:46:41.953Z,23.98
2018-12-22T07:47:41.899Z,23.87
2018-12-22T07:48:41.854Z,23.95
2018-12-22T07:49:41.809Z,23.98
2018-12-22T07:50:41.750Z,23.95
2018-12-22T07:51:41.718Z,23.92
2018-12-22T07:52:41.660Z,23.93
2018-12-22T07:53:41.638Z,23.95
2018-12-22T07:54:43.660Z,23.81
2018-12-22T07:55:41.534Z,23.88
2018-12-22T07:56:41.504Z,23.87
2018-12-22T07:57:41.457Z,23.80
2018-12-22T07:58:41.390Z,23.88
2018-12-22T07:59:41.348Z,23.84
2018-12-22T08:00:41.321Z,23.86
2018-12-22T08:01:41.262Z,23.81
2018-12-22T08:02:41.222Z,23.96
2018-12-22T08:03:41.164Z,23.93
2018-12-22T08:04:41.145Z,23.93
2018-12-22T08:05:41.074Z,24.01
2018-12-22T08:06:41.030Z,24.05
2018-12-22T08:07:40.996Z,24.06
2018-12-22T08:08:40.938Z,23.96
2018-12-22T08:09:40.903Z,23.88
2018-12-22T08:10:40.848Z,23.87
2018-12-22T08:11:40.803Z,23.78
2018-12-22T08:12:40.771Z,23.77
2018-12-22T08:13:40.720Z,23.71
2018-12-22T08:14:40.676Z,23.61
2018-12-22T08:15:40.717Z,23.58
2018-12-22T08:16:40.584Z,23.48
2018-12-22T08:17:40.544Z,23.47
2018-12-22T08:18:40.488Z,23.48
2018-12-22T08:19:40.442Z,23.46
2018-12-22T08:20:40.403Z,23.44
2018-12-22T08:21:40.372Z,23.47
2018-12-22T08:22:40.319Z,23.40
2018-12-22T08:23:40.284Z,23.40
2018-12-22T08:24:40.215Z,23.46
2018-12-22T08:25:40.184Z,23.46
2018-12-22T08:26:40.133Z,23.47
2018-12-22T08:27:40.086Z,23.51
2018-12-22T08:28:40.043Z,23.54
2018-12-22T08:29:40.010Z,23.55
2018-12-22T08:30:43.667Z,23.56
2018-12-22T08:31:39.910Z,23.54
2018-12-22T08:32:39.865Z,23.44
2018-12-22T08:33:39.819Z,23.40
2018-12-22T08:34:39.775Z,23.34
2018-12-22T08:35:39.716Z,23.37
2018-12-22T08:36:39.684Z,23.31
2018-12-22T08:37:39.626Z,23.31
2018-12-22T08:38:39.580Z,23.39
2018-12-22T08:39:39.535Z,23.32
2018-12-22T08:40:39.502Z,23.43
2018-12-22T08:41:39.444Z,23.41
2018-12-22T08:42:39.411Z,23.41
2018-12-22T08:43:39.374Z,23.41
2018-12-22T08:44:39.320Z,23.47
2018-12-22T08:45:39.275Z,23.48
2018-12-22T08:46:39.238Z,23.56
2018-12-22T08:47:39.193Z,23.63
2018-12-22T08:48:39.139Z,23.71
2018-12-22T08:49:39.094Z,23.71
2018-12-22T08:50:39.057Z,23.80
2018-12-22T08:51:39.003Z,23.78
2018-12-22T08:52:38.969Z,23.87
2018-12-22T08:53:38.921Z,23.87
2018-12-22T08:54:38.867Z,23.96
2018-12-22T08:55:38.823Z,23.98
2018-12-22T08:56:38.777Z,24.01
2018-12-22T08:57:38.740Z,24.05
2018-12-22T08:58:38.695Z,24.01
2018-12-22T08:59:38.629Z,24.06
2018-12-22T09:00:38.583Z,24.06
2018-12-22T09:01:38.551Z,24.05
2018-12-22T09:02:38.492Z,24.08
2018-12-22T09:03:38.473Z,24.08
2018-12-22T09:04:38.416Z,24.06
2018-12-22T09:05:38.366Z,24.08
2018-12-22T09:06:38.334Z,24.17
2018-12-22T09:07:38.289Z,24.23
2018-12-22T09:08:38.222Z,24.30
2018-12-22T09:09:38.199Z,24.32
2018-12-22T09:10:38.136Z,24.32
2018-12-22T09:11:38.097Z,24.45
2018-12-22T09:12:38.056Z,24.42
2018-12-22T09:13:38.010Z,24.55
2018-12-22T09:14:37.953Z,24.61
2018-12-22T09:15:38.075Z,24.73
2018-12-22T09:16:37.885Z,24.76
2018-12-22T09:17:37.827Z,24.81
2018-12-22T09:18:37.787Z,24.78
2018-12-22T09:19:37.738Z,24.77
2018-12-22T09:20:37.698Z,24.88
2018-12-22T09:21:37.662Z,24.92
2018-12-22T09:22:37.607Z,25.03
2018-12-22T09:23:37.560Z,25.13
2018-12-22T09:24:37.520Z,25.16
2018-12-22T09:25:37.476Z,25.31
2018-12-22T09:26:37.419Z,25.48
2018-12-22T09:27:37.396Z,25.62
2018-12-22T09:28:37.330Z,25.81
2018-12-22T09:29:37.286Z,25.84
2018-12-22T09:30:37.263Z,25.77
2018-12-22T09:31:37.222Z,25.78
2018-12-22T09:32:37.168Z,25.77
2018-12-22T09:33:37.123Z,25.77
2018-12-22T09:34:37.089Z,25.81
2018-12-22T09:35:37.024Z,25.98
2018-12-22T09:36:36.993Z,25.98
2018-12-22T09:37:36.950Z,25.81
2018-12-22T09:38:36.894Z,25.62
2018-12-22T09:39:36.873Z,25.53
2018-12-22T09:40:36.830Z,25.36
2018-12-22T09:41:36.773Z,25.32
2018-12-22T09:42:36.742Z,25.31
2018-12-22T09:43:36.690Z,25.28
2018-12-22T09:44:36.643Z,25.16
2018-12-22T09:45:36.612Z,25.13
2018-12-22T09:46:36.569Z,25.16
2018-12-22T09:47:36.641Z,25.23
2018-12-22T09:48:36.477Z,25.17
2018-12-22T09:49:36.439Z,25.25
2018-12-22T09:50:36.394Z,25.32
2018-12-22T09:51:36.331Z,25.36
2018-12-22T09:52:36.309Z,25.53
2018-12-22T09:53:36.245Z,25.80
2018-12-22T09:54:36.201Z,26.10
2018-12-22T09:55:36.166Z,26.59
2018-12-22T09:56:36.128Z,27.02
2018-12-22T09:57:36.072Z,27.32
2018-12-22T09:58:36.044Z,27.60
2018-12-22T09:59:35.988Z,27.73
2018-12-22T10:00:35.946Z,28.01
2018-12-22T10:01:35.918Z,28.25
2018-12-22T10:02:35.864Z,28.41
2018-12-22T10:03:35.836Z,28.54
2018-12-22T10:04:35.803Z,28.78
2018-12-22T10:05:35.763Z,28.75
2018-12-22T10:06:35.715Z,28.89
2018-12-22T10:07:35.663Z,28.85
2018-12-22T10:08:35.630Z,28.79
2018-12-22T10:09:35.591Z,28.89
2018-12-22T10:10:35.565Z,28.86
2018-12-22T10:11:35.527Z,29.02
2018-12-22T10:12:35.479Z,29.10
2018-12-22T10:13:35.442Z,29.17
2018-12-22T10:14:35.411Z,29.35
2018-12-22T10:15:35.354Z,29.27
2018-12-22T10:16:35.326Z,29.36
2018-12-22T10:17:35.284Z,29.23
2018-12-22T10:18:35.237Z,29.24
2018-12-22T10:19:35.215Z,29.32
2018-12-22T10:20:35.186Z,29.44
2018-12-22T10:21:35.126Z,29.51
2018-12-22T10:22:35.111Z,29.68
2018-12-22T10:23:35.075Z,29.94
2018-12-22T10:24:35.017Z,29.91
2018-12-22T10:25:35.003Z,30.06
2018-12-22T10:26:34.953Z,30.08
2018-12-22T10:27:34.932Z,30.12
2018-12-22T10:28:34.884Z,30.21
2018-12-22T10:29:34.860Z,30.28
2018-12-22T10:30:34.802Z,30.10
2018-12-22T10:31:34.767Z,30.03
2018-12-22T10:32:34.745Z,29.61
2018-12-22T10:33:34.693Z,29.51
2018-12-22T10:34:34.665Z,29.61
2018-12-22T10:35:34.643Z,29.69
2018-12-22T10:36:34.603Z,29.63
2018-12-22T10:37:34.545Z,29.65
2018-12-22T10:38:34.520Z,29.68
2018-12-22T10:39:34.477Z,29.76
2018-12-22T10:40:34.456Z,29.94
2018-12-22T10:41:34.406Z,29.90
2018-12-22T10:42:34.369Z,29.98
2018-12-22T10:43:34.319Z,30.00
2018-12-22T10:44:34.299Z,29.86
2018-12-22T10:45:34.238Z,29.84
2018-12-22T10:46:34.209Z,29.72
2018-12-22T10:47:34.177Z,29.93
2018-12-22T10:48:34.129Z,29.78
2018-12-22T10:49:34.103Z,29.65
2018-12-22T10:50:34.051Z,29.68
2018-12-22T10:51:34.002Z,29.82
2018-12-22T10:52:33.975Z,29.71
2018-12-22T10:53:33.938Z,29.66
2018-12-22T10:54:33.891Z,29.59
2018-12-22T10:55:33.850Z,29.63
2018-12-22T10:56:33.811Z,29.51
2018-12-22T10:57:33.786Z,29.49
2018-12-22T10:58:33.735Z,29.63
2018-12-22T10:59:33.703Z,29.68
2018-12-22T11:00:33.649Z,29.51
2018-12-22T11:01:33.620Z,29.35
2018-12-22T11:02:33.560Z,29.26
2018-12-22T11:03:33.532Z,29.14
2018-12-22T11:04:33.486Z,29.07
2018-12-22T11:05:33.459Z,29.10
2018-12-22T11:06:33.410Z,29.08
2018-12-22T11:07:33.369Z,29.13
2018-12-22T11:08:33.328Z,29.20
2018-12-22T11:09:33.295Z,29.22
2018-12-22T11:10:33.232Z,29.05
2018-12-22T11:11:33.200Z,29.12
2018-12-22T11:12:33.171Z,29.26
2018-12-22T11:13:33.117Z,29.39
2018-12-22T11:14:33.080Z,29.41
2018-12-22T11:15:33.026Z,29.47
2018-12-22T11:16:32.999Z,29.61
2018-12-22T11:17:32.965Z,29.79
2018-12-22T11:18:32.923Z,29.75
2018-12-22T11:19:32.874Z,29.94
2018-12-22T11:20:32.819Z,29.97
2018-12-22T11:21:32.799Z,30.00
2018-12-22T11:22:32.758Z,30.02
2018-12-22T11:23:32.716Z,30.03
2018-12-22T11:24:32.667Z,30.02
2018-12-22T11:25:32.612Z,30.05
2018-12-22T11:26:32.579Z,30.10
2018-12-22T11:27:32.530Z,30.12
2018-12-22T11:28:32.497Z,30.02
2018-12-22T11:29:32.454Z,29.93
2018-12-22T11:30:32.414Z,29.78
2018-12-22T11:31:35.137Z,29.75
2018-12-22T11:32:32.344Z,29.59
2018-12-22T11:33:32.304Z,29.39
2018-12-22T11:34:32.253Z,29.36
2018-12-22T11:35:32.206Z,29.44
2018-12-22T11:36:32.168Z,29.44
2018-12-22T11:37:32.123Z,29.47
2018-12-22T11:38:32.082Z,29.44
2018-12-22T11:39:32.032Z,29.47
2018-12-22T11:40:32.004Z,29.39
2018-12-22T11:41:31.962Z,29.56
2018-12-22T11:42:31.929Z,29.61
2018-12-22T11:43:31.869Z,29.65
2018-12-22T11:44:31.847Z,29.66
2018-12-22T11:45:31.783Z,29.68
2018-12-22T11:46:31.763Z,29.78
2018-12-22T11:47:31.707Z,29.87
2018-12-22T11:48:31.665Z,30.03
2018-12-22T11:49:31.624Z,30.06
2018-12-22T11:50:31.590Z,30.15
2018-12-22T11:51:31.541Z,30.15
2018-12-22T11:52:31.513Z,30.30
2018-12-22T11:53:31.459Z,30.35
2018-12-22T11:54:31.409Z,30.35
2018-12-22T11:55:31.380Z,30.30
2018-12-22T11:56:31.348Z,30.32
2018-12-22T11:57:31.306Z,30.32
2018-12-22T11:58:31.265Z,30.32
2018-12-22T11:59:31.223Z,30.32
2018-12-22T12:00:31.168Z,30.35
2018-12-22T12:01:31.121Z,30.31
2018-12-22T12:02:31.096Z,30.50
2018-12-22T12:03:31.058Z,30.61
2018-12-22T12:04:31.017Z,30.57
2018-12-22T12:05:30.967Z,30.57
2018-12-22T12:06:30.917Z,30.46
2018-12-22T12:07:30.872Z,30.32
2018-12-22T12:08:30.976Z,30.25
2018-12-22T12:09:30.811Z,30.34
2018-12-22T12:10:30.852Z,30.50
2018-12-22T12:11:30.715Z,30.59
2018-12-22T12:12:30.687Z,30.50
2018-12-22T12:13:30.637Z,30.51
2018-12-22T12:14:30.596Z,30.59
2018-12-22T12:15:30.563Z,30.51
2018-12-22T12:16:30.508Z,30.53
2018-12-22T12:17:30.530Z,30.57
2018-12-22T12:18:30.418Z,30.63
2018-12-22T12:19:30.377Z,30.70
2018-12-22T12:20:30.360Z,30.75
2018-12-22T12:21:30.303Z,30.81
2018-12-22T12:22:30.253Z,30.72
2018-12-22T12:23:30.226Z,30.68
2018-12-22T12:24:30.179Z,30.65
2018-12-22T12:25:30.142Z,30.72
2018-12-22T12:26:30.096Z,30.70
2018-12-22T12:27:30.050Z,30.84
2018-12-22T12:28:30.014Z,30.77
2018-12-22T12:29:29.992Z,30.88
2018-12-22T12:30:29.924Z,30.92
2018-12-22T12:31:29.895Z,30.84
2018-12-22T12:32:29.870Z,30.88
2018-12-22T12:33:29.808Z,30.84
2018-12-22T12:34:29.781Z,30.87
2018-12-22T12:35:29.718Z,30.96
2018-12-22T12:36:29.699Z,30.94
2018-12-22T12:37:29.646Z,31.06
2018-12-22T12:38:29.602Z,31.24
2018-12-22T12:39:29.565Z,31.36
2018-12-22T12:40:29.538Z,31.47
2018-12-22T12:41:30.002Z,31.44
2018-12-22T12:42:29.453Z,31.65
2018-12-22T12:43:29.398Z,31.70
2018-12-22T12:44:29.350Z,31.76
2018-12-22T12:45:29.317Z,31.71
2018-12-22T12:46:29.268Z,31.74
2018-12-22T12:47:29.249Z,31.90
2018-12-22T12:48:29.200Z,31.90
2018-12-22T12:49:29.159Z,31.93
2018-12-22T12:50:29.105Z,32.04
2018-12-22T12:51:29.086Z,32.12